Home > Products > Valid Products > TAF

000
FTUS43 KJKL 080205 AAA
TAFJKL
TAF AMD
KJKL 080205Z 0802/0824 VRB03KT 2SM +TSRA BKN015CB BKN035
     FM080230 VRB03KT P6SM VCTS SCT015 BKN050CB
     FM080400 VRB03KT 6SM BR VCTS SCT025CB BKN050 OVC120
     FM080800 VRB03KT 3SM BR VCSH SCT025 BKN050 OVC100
     FM081300 23005KT 5SM BR VCTS OVC015CB=



000
FTUS43 KJKL 080047 CCA
TAFLOZ
TAF COR
KLOZ 080047Z 0800/0824 23009KT P6SM VCTS SCT050CB BKN150
      TEMPO 0800/0802 28010G20KT 3SM -TSRA SCT035 BKN050CB
     FM080400 VRB03KT 6SM BR VCTS SCT025CB BKN050 OVC120
     FM080800 VRB03KT 3SM BR VCSH SCT025 BKN050 OVC100
     FM081300 23005KT 5SM BR VCTS OVC015CB=



000
FTUS43 KJKL 080047 CCA
TAFJKL
TAF COR
KJKL 080047Z 0800/0824 VRB03KT P6SM VCTS FEW050CB BKN150
      TEMPO 0800/0802 28010G20KT 3SM -TSRA SCT035 BKN050CB
     FM080400 VRB03KT 6SM BR VCTS SCT025CB BKN050 OVC120
     FM080800 VRB03KT 3SM BR VCSH SCT025 BKN050 OVC100
     FM081300 23005KT 5SM BR VCTS OVC015CB=



000
FTUS43 KJKL 080047 CCA
TAFSME
TAF COR
KSME 080047Z 0800/0824 22012KT P6SM VCTS SCT050CB BKN150
      TEMPO 0800/0802 28010G20KT 3SM -TSRA SCT035 BKN050CB
     FM080400 VRB03KT 6SM BR VCTS SCT025CB BKN050 OVC120
     FM080800 VRB03KT 3SM BR VCSH SCT025 BKN050 OVC100
     FM081300 23005KT 5SM BR VCTS OVC015CB=



000
FTUS43 KJKL 072339
TAFJKL
TAF
KJKL 072339Z 0800/0824 VRB03KT P6SM VCTS FEW050CB BKN150
      TEMPO 0800/0802 28010G20KT -TSRA SCT035 BKN050CB
     FM080400 VRB03KT 6SM BR VCTS SCT025CB BKN050 OVC120
     FM080800 VRB03KT 3SM BR VCSH SCT025 BKN050 OVC100
     FM081300 23005KT 5SM BR VCTS OVC015CB=



000
FTUS43 KJKL 072339
TAFLOZ
TAF
KLOZ 072339Z 0800/0824 23009KT P6SM VCTS SCT050CB BKN150
      TEMPO 0800/0802 28010G20KT -TSRA SCT035 BKN050CB
     FM080400 VRB03KT 6SM BR VCTS SCT025CB BKN050 OVC120
     FM080800 VRB03KT 3SM BR VCSH SCT025 BKN050 OVC100
     FM081300 23005KT 5SM BR VCTS OVC015CB=



000
FTUS43 KJKL 072339
TAFJKL
TAF
KJKL 072339Z 0800/0824 VRB03KT P6SM VCTS FEW050CB BKN150
      TEMPO 0800/0802 28010G20KT -TSRA SCT035 BKN050CB
     FM080400 VRB03KT 6SM BR VCTS SCT025CB BKN050 OVC120
     FM080800 VRB03KT 3SM BR VCSH SCT025 BKN050 OVC100
     FM081300 23005KT 5SM BR VCTS OVC015CB=



000
FTUS43 KJKL 072339
TAFSME
TAF
KSME 072339Z 0800/0824 22012KT P6SM VCTS SCT050CB BKN150
      TEMPO 0800/0802 28010G20KT -TSRA SCT035 BKN050CB
     FM080400 VRB03KT 6SM BR VCTS SCT025CB BKN050 OVC120
     FM080800 VRB03KT 3SM BR VCSH SCT025 BKN050 OVC100
     FM081300 23005KT 5SM BR VCTS OVC015CB=



000
FTUS43 KJKL 072339
TAFLOZ
TAF
KLOZ 072339Z 0800/0824 23009KT P6SM VCTS SCT050CB BKN150
      TEMPO 0800/0802 28010G20KT -TSRA SCT035 BKN050CB
     FM080400 VRB03KT 6SM BR VCTS SCT025CB BKN050 OVC120
     FM080800 VRB03KT 3SM BR VCSH SCT025 BKN050 OVC100
     FM081300 23005KT 5SM BR VCTS OVC015CB=



000
FTUS43 KJKL 072339
TAFSME
TAF
KSME 072339Z 0800/0824 22012KT P6SM VCTS SCT050CB BKN150
      TEMPO 0800/0802 28010G20KT -TSRA SCT035 BKN050CB
     FM080400 VRB03KT 6SM BR VCTS SCT025CB BKN050 OVC120
     FM080800 VRB03KT 3SM BR VCSH SCT025 BKN050 OVC100
     FM081300 23005KT 5SM BR VCTS OVC015CB=



000
FTUS43 KJKL 071740
TAFLOZ
TAF
KLOZ 071740Z 0718/0818 23009KT P6SM VCTS SCT025CB BKN035 OVC200
     FM080400 21003KT 4SM BR VCTS SCT025CB OVC100
     FM081300 22009KT 5SM BR VCTS OVC015CB=



000
FTUS43 KJKL 071740
TAFSME
TAF
KSME 071740Z 0718/0818 22012KT P6SM VCTS SCT025CB BKN035 OVC200
     FM080400 21003KT 4SM BR VCTS SCT025CB BKN050 OVC100
     FM081300 22009KT 5SM BR VCTS OVC015CB=



000
FTUS43 KJKL 071740
TAFLOZ
TAF
KLOZ 071740Z 0718/0818 23009KT P6SM VCTS SCT025CB BKN035 OVC200
     FM080400 21003KT 4SM BR VCTS SCT025CB OVC100
     FM081300 22009KT 5SM BR VCTS OVC015CB=



000
FTUS43 KJKL 071740
TAFSME
TAF
KSME 071740Z 0718/0818 22012KT P6SM VCTS SCT025CB BKN035 OVC200
     FM080400 21003KT 4SM BR VCTS SCT025CB BKN050 OVC100
     FM081300 22009KT 5SM BR VCTS OVC015CB=



000
FTUS43 KJKL 071740
TAFJKL
TAF
KJKL 071740Z 0718/0818 VRB05KT P6SM VCTS SCT025CB BKN035 OVC200
     FM080400 VRB03KT 6SM BR VCTS SCT025CB BKN050 OVC120
     FM080800 VRB03KT 3SM BR VCSH SCT025 BKN050 OVC100
     FM081300 23005KT 5SM BR VCTS OVC015CB=



000
FTUS43 KJKL 071740
TAFJKL
TAF
KJKL 071740Z 0718/0818 VRB05KT P6SM VCTS SCT025CB BKN035 OVC200
     FM080400 VRB03KT 6SM BR VCTS SCT025CB BKN050 OVC120
     FM080800 VRB03KT 3SM BR VCSH SCT025 BKN050 OVC100
     FM081300 23005KT 5SM BR VCTS OVC015CB=



000
FTUS43 KJKL 071649 AAB
TAFLOZ
TAF AMD
KLOZ 071649Z 0717/0812 22008KT P6SM VCTS SCT025CB BKN035 OVC200
     FM080000 00000KT 6SM BR OVC120
     FM080400 21003KT 4SM BR OVC100=



000
FTUS43 KJKL 071514 AAB
TAFSME
TAF AMD
KSME 071514Z 0715/0812 22008G15KT P6SM VCSH BKN025 OVC200
     FM080000 00000KT 6SM BR OVC250
     FM080400 21003KT 4SM BR OVC100=



000
FTUS43 KJKL 071514 AAB
TAFSME
TAF AMD
KSME 071514Z 0715/0812 22008G15KT P6SM VCSH BKN025 OVC200
     FM080000 00000KT 6SM BR OVC250
     FM080400 21003KT 4SM BR OVC100=



000
FTUS43 KJKL 071514 AAA
TAFLOZ
TAF AMD
KLOZ 071514Z 0715/0812 22006KT P6SM VCSH BKN025 OVC200
     FM080000 00000KT 6SM BR OVC120
     FM080400 21003KT 4SM BR OVC100=



000
FTUS43 KJKL 071513 AAD
TAFJKL
TAF AMD
KJKL 071513Z 0715/0812 VRB03KT P6SM BKN025 BKN200
     FM071800 VRB05KT P6SM VCSH BKN035 OVC200
     FM080000 00000KT 6SM BR OVC120
     FM080500 00000KT 4SM BR OVC100=



000
FTUS43 KJKL 071158 AAA
TAFSME
TAF AMD
KSME 071158Z 0712/0812 00000KT P6SM BKN015
     FM071400 VRB03KT P6SM SCT020 BKN200
     FM071600 22008G15KT P6SM VCSH BKN035 OVC200
     FM080000 00000KT 6SM BR OVC250
     FM080400 21003KT 4SM BR OVC100=



000
FTUS43 KJKL 071158 AAA
TAFSME
TAF AMD
KSME 071158Z 0712/0812 00000KT P6SM BKN015
     FM071400 VRB03KT P6SM SCT020 BKN200
     FM071600 22008G15KT P6SM VCSH BKN035 OVC200
     FM080000 00000KT 6SM BR OVC250
     FM080400 21003KT 4SM BR OVC100=



000
FTUS43 KJKL 071156 AAB
TAFJKL
TAF AMD
KJKL 071156Z 0712/0812 VRB03KT P6SM FEW030 SCT200
     FM071800 VRB05KT P6SM VCSH BKN035 OVC200
     FM080000 00000KT 6SM BR OVC120
     FM080500 00000KT 4SM BR OVC100=



000
FTUS43 KJKL 071156 AAB
TAFJKL
TAF AMD
KJKL 071156Z 0712/0812 VRB03KT P6SM FEW030 SCT200
     FM071800 VRB05KT P6SM VCSH BKN035 OVC200
     FM080000 00000KT 6SM BR OVC120
     FM080500 00000KT 4SM BR OVC100=



000
FTUS43 KJKL 071120
TAFLOZ
TAF
KLOZ 071120Z 0712/0812 00000KT 6SM HZ SCT030 BKN040
     FM071300 00000KT P6SM SCT040 BKN200
     FM071600 22006KT P6SM VCSH BKN035 OVC200
     FM080000 00000KT 6SM BR OVC120
     FM080400 21003KT 4SM BR OVC100=



000
FTUS43 KJKL 071120
TAFLOZ
TAF
KLOZ 071120Z 0712/0812 00000KT 6SM HZ SCT030 BKN040
     FM071300 00000KT P6SM SCT040 BKN200
     FM071600 22006KT P6SM VCSH BKN035 OVC200
     FM080000 00000KT 6SM BR OVC120
     FM080400 21003KT 4SM BR OVC100=



000
FTUS43 KJKL 071120
TAFSME
TAF
KSME 071120Z 0712/0812 00000KT 5SM BR SKC
     FM071300 00000KT P6SM SCT040 BKN200
     FM071600 22008G15KT P6SM VCSH BKN035 OVC200
     FM080000 00000KT 6SM BR OVC250
     FM080400 21003KT 4SM BR OVC100=



000
FTUS43 KJKL 071120
TAFJKL
TAF
KJKL 071120Z 0712/0812 00000KT 5SM BR BKN020
     FM071300 00000KT P6SM FEW030 SCT200
     FM071800 VRB03KT P6SM VCSH BKN035 OVC200
     FM080000 00000KT 6SM BR OVC120
     FM080500 00000KT 4SM HZ OVC100=



000
FTUS43 KJKL 071120
TAFSME
TAF
KSME 071120Z 0712/0812 00000KT 5SM BR SKC
     FM071300 00000KT P6SM SCT040 BKN200
     FM071600 22008G15KT P6SM VCSH BKN035 OVC200
     FM080000 00000KT 6SM BR OVC250
     FM080400 21003KT 4SM BR OVC100=



000
FTUS43 KJKL 071120
TAFJKL
TAF
KJKL 071120Z 0712/0812 00000KT 5SM BR BKN020
     FM071300 00000KT P6SM FEW030 SCT200
     FM071800 VRB03KT P6SM VCSH BKN035 OVC200
     FM080000 00000KT 6SM BR OVC120
     FM080500 00000KT 4SM HZ OVC100=



000
FTUS43 KJKL 070811 AAA
TAFLOZ
TAF AMD
KLOZ 070811Z 0708/0806 00000KT 6SM HZ SKC
      TEMPO 0708/0711 4SM BR SKC
     FM071300 00000KT P6SM SCT040 BKN200
     FM071600 22006KT P6SM VCSH BKN035 OVC200
     FM080000 00000KT 6SM BR OVC250=



000
FTUS43 KJKL 070808 AAA
TAFSME
TAF AMD
KSME 070808Z 0708/0806 00000KT P6SM SKC
      TEMPO 0708/0711 4SM BR SKC
     FM071300 00000KT P6SM SCT040 BKN200
     FM071600 22008KT P6SM VCSH BKN035 OVC200
     FM080000 00000KT 6SM BR OVC250=



000
FTUS43 KJKL 070532
TAFJKL
TAF
KJKL 070532Z 0706/0806 00000KT 6SM BR SKC
     FM070900 00000KT 4SM BR SKC
     FM071300 00000KT P6SM FEW030 SCT200
     FM071800 VRB03KT P6SM VCSH BKN035 OVC200
     FM080000 00000KT 6SM BR OVC250=



000
FTUS43 KJKL 070532
TAFLOZ
TAF
KLOZ 070532Z 0706/0806 00000KT 5SM BR HZ SCT035
     FM070800 00000KT 2SM BR SCT035
     FM071300 00000KT P6SM SCT040 BKN200
     FM071600 22006KT P6SM VCSH BKN035 OVC200
     FM080000 00000KT 6SM BR OVC250=



000
FTUS43 KJKL 070532
TAFSME
TAF
KSME 070532Z 0706/0806 00000KT 4SM BR SCT035
     FM070800 00000KT 1SM BR SCT003 SCT035
     FM071300 00000KT P6SM SCT040 BKN200
     FM071600 22008KT P6SM VCSH BKN035 OVC200
     FM080000 00000KT 6SM BR OVC250=



000
FTUS43 KJKL 062321
TAFSME
TAF
KSME 062321Z 0700/0724 24006KT P6SM SKC
     FM070400 00000KT 2SM BR SCT035
     FM070800 00000KT 1/2SM FG SCT003 SCT035
     FM071300 00000KT P6SM SCT040 BKN200
     FM071600 22008KT P6SM VCSH BKN035 OVC200=



000
FTUS43 KJKL 062321
TAFJKL
TAF
KJKL 062321Z 0700/0724 00000KT P6SM SKC
     FM070900 00000KT 4SM BR SKC
     FM071300 00000KT P6SM FEW030 SCT200
     FM071600 VRB03KT P6SM VCSH BKN035 OVC200=



000
FTUS43 KJKL 062321
TAFLOZ
TAF
KLOZ 062321Z 0700/0724 24008KT P6SM SKC
     FM070400 00000KT 3SM BR SCT035
     FM070800 00000KT 1SM BR SCT035
     FM071300 00000KT P6SM SCT040 BKN200
     FM071600 22006KT P6SM VCSH BKN035 OVC200=



000
FTUS43 KJKL 062321
TAFSME
TAF
KSME 062321Z 0700/0724 24006KT P6SM SKC
     FM070400 00000KT 2SM BR SCT035
     FM070800 00000KT 1/2SM FG SCT003 SCT035
     FM071300 00000KT P6SM SCT040 BKN200
     FM071600 22008KT P6SM VCSH BKN035 OVC200=



000
FTUS43 KJKL 062321
TAFLOZ
TAF
KLOZ 062321Z 0700/0724 24008KT P6SM SKC
     FM070400 00000KT 3SM BR SCT035
     FM070800 00000KT 1SM BR SCT035
     FM071300 00000KT P6SM SCT040 BKN200
     FM071600 22006KT P6SM VCSH BKN035 OVC200=



000
FTUS43 KJKL 061732
TAFLOZ
TAF
KLOZ 061732Z 0618/0718 23006KT P6SM SCT025 SCT035
     FM062300 00000KT P6SM BKN250
     FM070400 00000KT 3SM BR SCT035
     FM070800 00000KT 1SM BR SCT035
     FM071400 22006KT P6SM VCSH BKN035 OVC200=



000
FTUS43 KJKL 061732
TAFSME
TAF
KSME 061732Z 0618/0718 VRB03KT P6SM SCT035
     FM070400 00000KT 2SM BR SCT035
     FM070800 00000KT 1/2SM FG SCT003 SCT035
     FM071400 22008KT P6SM VCSH BKN035 OVC200=



000
FTUS43 KJKL 061732
TAFJKL
TAF
KJKL 061732Z 0618/0718 VRB05KT P6SM SCT025 SCT035
     FM070900 00000KT 4SM BR SKC
     FM071400 VRB03KT P6SM VCSH BKN035 OVC200=



000
FTUS43 KJKL 061732
TAFLOZ
TAF
KLOZ 061732Z 0618/0718 23006KT P6SM SCT025 SCT035
     FM062300 00000KT P6SM BKN250
     FM070400 00000KT 3SM BR SCT035
     FM070800 00000KT 1SM BR SCT035
     FM071400 22006KT P6SM VCSH BKN035 OVC200=



000
FTUS43 KJKL 061358 AAA
TAFLOZ
TAF AMD
KLOZ 061358Z 0614/0712 00000KT 5SM BR OVC005
     FM061430 00000KT P6SM BKN090
     FM061500 VRB03KT P6SM BKN015
     FM061700 VRB03KT P6SM SCT035
     FM070400 00000KT 3SM BR SCT035
     FM070800 00000KT 1SM BR SCT035=



000
FTUS43 KJKL 061358 AAA
TAFLOZ
TAF AMD
KLOZ 061358Z 0614/0712 00000KT 5SM BR OVC005
     FM061430 00000KT P6SM BKN090
     FM061500 VRB03KT P6SM BKN015
     FM061700 VRB03KT P6SM SCT035
     FM070400 00000KT 3SM BR SCT035
     FM070800 00000KT 1SM BR SCT035=



000
FTUS43 KJKL 061354 AAB
TAFJKL
TAF AMD
KJKL 061354Z 0614/0712 00000KT 3SM BR BKN004 BKN050
     FM061500 VRB03KT P6SM BKN015
     FM061700 VRB03KT P6SM SCT035=



000
FTUS43 KJKL 061156 CCA
TAFSME
TAF COR
KSME 061156Z 0612/0712 00000KT 1/4SM FG OVC002
     FM061330 00000KT 3SM BR BKN009 BKN050
     FM061500 VRB03KT P6SM BKN015
     FM061700 VRB03KT P6SM SCT035
     FM070400 00000KT 2SM BR SCT035
     FM070800 00000KT 1/2SM FG SCT003 SCT035=



000
FTUS43 KJKL 061156 CCA
TAFSME
TAF COR
KSME 061156Z 0612/0712 00000KT 1/4SM FG OVC002
     FM061330 00000KT 3SM BR BKN009 BKN050
     FM061500 VRB03KT P6SM BKN015
     FM061700 VRB03KT P6SM SCT035
     FM070400 00000KT 2SM BR SCT035
     FM070800 00000KT 1/2SM FG SCT003 SCT035=



000
FTUS43 KJKL 061154 CCA
TAFLOZ
TAF COR
KLOZ 061154Z 0612/0712 00000KT 5SM BR OVC002
     FM061330 00000KT P6SM BKN090
     FM061500 VRB03KT P6SM BKN015
     FM061700 VRB03KT P6SM SCT035
     FM070400 00000KT 3SM BR SCT035
     FM070800 00000KT 1SM BR SCT035=



000
FTUS43 KJKL 061154 CCA
TAFLOZ
TAF COR
KLOZ 061154Z 0612/0712 00000KT 5SM BR OVC002
     FM061330 00000KT P6SM BKN090
     FM061500 VRB03KT P6SM BKN015
     FM061700 VRB03KT P6SM SCT035
     FM070400 00000KT 3SM BR SCT035
     FM070800 00000KT 1SM BR SCT035=



000
FTUS43 KJKL 061139
TAFJKL
TAF
KJKL 061139Z 0612/0712 00000KT 1/4SM FG VV001
     FM061330 00000KT 3SM BR BKN009 BKN050
     FM061500 VRB03KT P6SM BKN015
     FM061700 VRB03KT P6SM SCT035=



000
FTUS43 KJKL 061139
TAFLOZ
TAF
KLOZ 061139Z 0612/0712 00000KT 3SM BR OVC002
     FM061330 00000KT P6SM BKN090
     FM061500 VRB03KT P6SM BKN015
     FM061700 VRB03KT P6SM SCT035=



000
FTUS43 KJKL 061139
TAFJKL
TAF
KJKL 061139Z 0612/0712 00000KT 1/4SM FG VV001
     FM061330 00000KT 3SM BR BKN009 BKN050
     FM061500 VRB03KT P6SM BKN015
     FM061700 VRB03KT P6SM SCT035=



000
FTUS43 KJKL 061139
TAFLOZ
TAF
KLOZ 061139Z 0612/0712 00000KT 3SM BR OVC002
     FM061330 00000KT P6SM BKN090
     FM061500 VRB03KT P6SM BKN015
     FM061700 VRB03KT P6SM SCT035=



000
FTUS43 KJKL 061139
TAFSME
TAF
KSME 061139Z 0612/0712 00000KT 1/4SM FG OVC002
     FM061330 00000KT 3SM BR BKN009 BKN050
     FM061500 VRB03KT P6SM BKN015
     FM061700 VRB03KT P6SM SCT035=



000
FTUS43 KJKL 061139
TAFSME
TAF
KSME 061139Z 0612/0712 00000KT 1/4SM FG OVC002
     FM061330 00000KT 3SM BR BKN009 BKN050
     FM061500 VRB03KT P6SM BKN015
     FM061700 VRB03KT P6SM SCT035=



000
FTUS43 KJKL 060540
TAFJKL
TAF
KJKL 060540Z 0606/0706 00000KT 2SM -RA BR OVC002
     FM060700 00000KT 1/2SM FG OVC002
     FM061400 VRB03KT P6SM OVC015
     FM061800 VRB03KT P6SM BKN060
     FM070000 VRB03KT P6SM SCT250
     FM070400 00000KT 5SM BR SKC=



000
FTUS43 KJKL 060540
TAFSME
TAF
KSME 060540Z 0606/0706 00000KT 1/4SM FG OVC002
     FM061400 VRB04KT P6SM BKN025
     FM061800 VRB04KT P6SM SCT060
     FM070000 VRB03KT P6SM SCT250
     FM070400 00000KT 5SM BR SKC=



000
FTUS43 KJKL 060540
TAFLOZ
TAF
KLOZ 060540Z 0606/0706 00000KT 1/4SM FG OVC002
     FM061400 VRB04KT P6SM BKN025
     FM061800 VRB04KT P6SM SCT060
     FM070000 VRB03KT P6SM SCT250
     FM070400 00000KT 5SM BR SKC=



000
FTUS43 KJKL 060540
TAFLOZ
TAF
KLOZ 060540Z 0606/0706 00000KT 1/4SM FG OVC002
     FM061400 VRB04KT P6SM BKN025
     FM061800 VRB04KT P6SM SCT060
     FM070000 VRB03KT P6SM SCT250
     FM070400 00000KT 5SM BR SKC=



000
FTUS43 KJKL 060540
TAFJKL
TAF
KJKL 060540Z 0606/0706 00000KT 2SM -RA BR OVC002
     FM060700 00000KT 1/2SM FG OVC002
     FM061400 VRB03KT P6SM OVC015
     FM061800 VRB03KT P6SM BKN060
     FM070000 VRB03KT P6SM SCT250
     FM070400 00000KT 5SM BR SKC=



000
FTUS43 KJKL 060540
TAFSME
TAF
KSME 060540Z 0606/0706 00000KT 1/4SM FG OVC002
     FM061400 VRB04KT P6SM BKN025
     FM061800 VRB04KT P6SM SCT060
     FM070000 VRB03KT P6SM SCT250
     FM070400 00000KT 5SM BR SKC=



000
FTUS43 KJKL 060458 AAA
TAFLOZ
TAF AMD
KLOZ 060458Z 0605/0624 00000KT 1/2SM FG OVC002
     FM061500 VRB04KT P6SM BKN025=



000
FTUS43 KJKL 060344 AAB
TAFSME
TAF AMD
KSME 060344Z 0604/0624 00000KT 1/2SM FG OVC002
     FM061400 VRB03KT P6SM BKN025=



000
FTUS43 KJKL 060315 AAB
TAFJKL
TAF AMD
KJKL 060315Z 0603/0624 00000KT 5SM -RA BR OVC003
     FM060600 00000KT 1/2SM FG OVC002
     FM061500 VRB03KT P6SM OVC015=



000
FTUS43 KJKL 060025 AAA
TAFSME
TAF AMD
KSME 060025Z 0600/0624 VRB03KT P6SM SCT040 SCT080
     FM060300 VRB03KT 3SM BR FEW040
     FM060700 00000KT 1/2SM FG BKN005
     FM061400 VRB03KT P6SM BKN025=



000
FTUS43 KJKL 060025 AAA
TAFSME
TAF AMD
KSME 060025Z 0600/0624 VRB03KT P6SM SCT040 SCT080
     FM060300 VRB03KT 3SM BR FEW040
     FM060700 00000KT 1/2SM FG BKN005
     FM061400 VRB03KT P6SM BKN025=



000
FTUS43 KJKL 052333
TAFJKL
TAF
KJKL 052333Z 0600/0624 VRB03KT 6SM BR VCSH SCT015 BKN035
     FM060400 00000KT 1SM BR BKN003
     FM061500 VRB03KT P6SM OVC015=



000
FTUS43 KJKL 052333
TAFLOZ
TAF
KLOZ 052333Z 0600/0624 VRB05KT P6SM SCT020 BKN045
     FM060300 VRB03KT 4SM BR SCT025
     FM060700 00000KT 1/2SM FG BKN002
     FM061500 VRB04KT P6SM BKN025=



000
FTUS43 KJKL 052333
TAFSME
TAF
KSME 052333Z 0600/0624 VRB03KT P6SM SCT040 SCT080
     FM060300 VRB03KT 3SM BR FEW040
     FM060700 00000KT 1/2SM FG BKN005
     FM061000 00000KT 1/2SM FG BKN005
     FM061400 VRB03KT P6SM BKN025=



000
FTUS43 KJKL 052333
TAFLOZ
TAF
KLOZ 052333Z 0600/0624 VRB05KT P6SM SCT020 BKN045
     FM060300 VRB03KT 4SM BR SCT025
     FM060700 00000KT 1/2SM FG BKN002
     FM061500 VRB04KT P6SM BKN025=



000
FTUS43 KJKL 052333
TAFJKL
TAF
KJKL 052333Z 0600/0624 VRB03KT 6SM BR VCSH SCT015 BKN035
     FM060400 00000KT 1SM BR BKN003
     FM061500 VRB03KT P6SM OVC015=



000
FTUS43 KJKL 052333
TAFSME
TAF
KSME 052333Z 0600/0624 VRB03KT P6SM SCT040 SCT080
     FM060300 VRB03KT 3SM BR FEW040
     FM060700 00000KT 1/2SM FG BKN005
     FM061000 00000KT 1/2SM FG BKN005
     FM061400 VRB03KT P6SM BKN025=



000
FTUS43 KJKL 052039 AAA
TAFLOZ
TAF AMD
KLOZ 052039Z 0521/0618 VRB05KT 6SM BR VCSH SCT020 OVC035
     FM060300 VRB03KT 4SM BR SCT025
     FM060700 00000KT 1/2SM FG BKN002
     FM061500 VRB04KT P6SM BKN025=



000
FTUS43 KJKL 051739
TAFJKL
TAF
KJKL 051739Z 0518/0618 VRB03KT 6SM -SHRA BR SCT015 OVC050
     FM051900 VRB03KT 5SM -SHRA BR VCTS BKN025CB OVC120
     FM052100 VRB03KT 5SM -SHRA BR VCTS OVC015CB
     FM060400 00000KT 1SM BR BKN003
     FM061500 VRB03KT P6SM OVC015=



000
FTUS43 KJKL 051739
TAFSME
TAF
KSME 051739Z 0518/0618 VRB05KT 5SM -SHRA BR VCTS SCT020CB BKN050
     FM060300 VRB03KT 3SM BR FEW040
     FM060700 00000KT 1/2SM FG BKN005
     FM061000 00000KT 1/2SM FG BKN005
     FM061400 VRB03KT P6SM BKN025=



000
FTUS43 KJKL 051739
TAFLOZ
TAF
KLOZ 051739Z 0518/0618 VRB03KT 1SM -SHRA BR VCTS SCT005 BKN007
      OVC035CB
     FM051900 36005KT 5SM -SHRA BR VCTS SCT007 BKN020CB OVC120
     FM060300 VRB03KT 4SM BR SCT025
     FM060700 00000KT 1/2SM FG BKN002
     FM061500 VRB04KT P6SM BKN025=



000
FTUS43 KJKL 051739
TAFSME
TAF
KSME 051739Z 0518/0618 VRB05KT 5SM -SHRA BR VCTS SCT020CB BKN050
     FM060300 VRB03KT 3SM BR FEW040
     FM060700 00000KT 1/2SM FG BKN005
     FM061000 00000KT 1/2SM FG BKN005
     FM061400 VRB03KT P6SM BKN025=



000
FTUS43 KJKL 051739
TAFLOZ
TAF
KLOZ 051739Z 0518/0618 VRB03KT 1SM -SHRA BR VCTS SCT005 BKN007
      OVC035CB
     FM051900 36005KT 5SM -SHRA BR VCTS SCT007 BKN020CB OVC120
     FM060300 VRB03KT 4SM BR SCT025
     FM060700 00000KT 1/2SM FG BKN002
     FM061500 VRB04KT P6SM BKN025=



000
FTUS43 KJKL 051739
TAFJKL
TAF
KJKL 051739Z 0518/0618 VRB03KT 6SM -SHRA BR SCT015 OVC050
     FM051900 VRB03KT 5SM -SHRA BR VCTS BKN025CB OVC120
     FM052100 VRB03KT 5SM -SHRA BR VCTS OVC015CB
     FM060400 00000KT 1SM BR BKN003
     FM061500 VRB03KT P6SM OVC015=



000
FTUS43 KJKL 051507 AAA
TAFSME
TAF AMD
KSME 051507Z 0515/0612 VRB03KT 6SM -SHRA BR SCT008 BKN015 OVC050
     FM051700 36005KT 5SM -SHRA BR VCTS BKN020CB OVC120
     FM060200 VRB03KT P6SM FEW040 BKN130
     FM060700 00000KT 2SM BR BKN130
     FM061000 00000KT 1/2SM FG BKN005 BKN130=



000
FTUS43 KJKL 051506 AAB
TAFLOZ
TAF AMD
KLOZ 051506Z 0515/0612 VRB03KT 1 1/2SM -SHRA BR SCT015 BKN025
      OVC120
     FM051700 36005KT 5SM -SHRA BR VCTS BKN020CB OVC120
     FM060200 VRB03KT P6SM FEW040 BKN130
     FM060700 00000KT 2SM BR BKN130
     FM061000 00000KT 1SM BR BKN005 BKN130=



000
FTUS43 KJKL 051506 AAB
TAFLOZ
TAF AMD
KLOZ 051506Z 0515/0612 VRB03KT 1 1/2SM -SHRA BR SCT015 BKN025
      OVC120
     FM051700 36005KT 5SM -SHRA BR VCTS BKN020CB OVC120
     FM060200 VRB03KT P6SM FEW040 BKN130
     FM060700 00000KT 2SM BR BKN130
     FM061000 00000KT 1SM BR BKN005 BKN130=



000
FTUS43 KJKL 051306 AAA
TAFLOZ
TAF AMD
KLOZ 051306Z 0513/0612 VRB03KT 6SM -SHRA BR SCT015 BKN025 OVC120
     FM051600 36005KT 5SM -SHRA BR VCTS BKN020CB OVC120
     FM060200 VRB03KT P6SM FEW040 BKN130
     FM060700 00000KT 2SM BR BKN130
     FM061000 00000KT 1SM BR BKN005 BKN130=



000
FTUS43 KJKL 051306 AAA
TAFLOZ
TAF AMD
KLOZ 051306Z 0513/0612 VRB03KT 6SM -SHRA BR SCT015 BKN025 OVC120
     FM051600 36005KT 5SM -SHRA BR VCTS BKN020CB OVC120
     FM060200 VRB03KT P6SM FEW040 BKN130
     FM060700 00000KT 2SM BR BKN130
     FM061000 00000KT 1SM BR BKN005 BKN130=



000
FTUS43 KJKL 051305 AAB
TAFJKL
TAF AMD
KJKL 051305Z 0513/0612 VRB03KT 6SM -SHRA BR BKN015 OVC100
     FM051600 VRB03KT 5SM -SHRA BR VCTS BKN025CB OVC120
     FM052100 VRB03KT 5SM -SHRA BR VCTS OVC015CB
     FM060000 VRB03KT 3SM -SHRA BR SCT008 OVC040
     FM060400 00000KT 2SM BR SCT006 SCT040 BKN150=



000
FTUS43 KJKL 051305 AAB
TAFJKL
TAF AMD
KJKL 051305Z 0513/0612 VRB03KT 6SM -SHRA BR BKN015 OVC100
     FM051600 VRB03KT 5SM -SHRA BR VCTS BKN025CB OVC120
     FM052100 VRB03KT 5SM -SHRA BR VCTS OVC015CB
     FM060000 VRB03KT 3SM -SHRA BR SCT008 OVC040
     FM060400 00000KT 2SM BR SCT006 SCT040 BKN150=



000
FTUS43 KJKL 051140
TAFLOZ
TAF
KLOZ 051140Z 0512/0612 VRB03KT P6SM -SHRA SCT020 OVC120
     FM051600 36005KT 5SM -SHRA BR VCTS BKN020CB OVC120
     FM060200 VRB03KT P6SM FEW040 BKN130
     FM060700 00000KT 2SM BR BKN130
     FM061000 00000KT 1SM BR BKN005 BKN130=



000
FTUS43 KJKL 051140
TAFSME
TAF
KSME 051140Z 0512/0612 VRB03KT P6SM -SHRA SCT020 OVC120
      TEMPO 0512/0516 3SM BR
     FM051600 36005KT 5SM -SHRA BR VCTS BKN020CB OVC120
     FM060200 VRB03KT P6SM FEW040 BKN130
     FM060700 00000KT 2SM BR BKN130
     FM061000 00000KT 1/2SM FG BKN005 BKN130=



000
FTUS43 KJKL 051140
TAFJKL
TAF
KJKL 051140Z 0512/0612 VRB03KT 6SM -SHRA BR SCT015 OVC100
      TEMPO 0512/0516 3SM -SHRA BR BKN005 OVC015
     FM051600 VRB03KT 5SM -SHRA BR VCTS BKN025CB OVC120
     FM052100 VRB03KT 5SM -SHRA BR VCTS OVC015CB
     FM060000 VRB03KT 3SM -SHRA BR SCT008 OVC040
     FM060400 00000KT 2SM BR SCT006 SCT040 BKN150=



000
FTUS43 KJKL 051140
TAFJKL
TAF
KJKL 051140Z 0512/0612 VRB03KT 6SM -SHRA BR SCT015 OVC100
      TEMPO 0512/0516 3SM -SHRA BR BKN005 OVC015
     FM051600 VRB03KT 5SM -SHRA BR VCTS BKN025CB OVC120
     FM052100 VRB03KT 5SM -SHRA BR VCTS OVC015CB
     FM060000 VRB03KT 3SM -SHRA BR SCT008 OVC040
     FM060400 00000KT 2SM BR SCT006 SCT040 BKN150=



000
FTUS43 KJKL 051140
TAFLOZ
TAF
KLOZ 051140Z 0512/0612 VRB03KT P6SM -SHRA SCT020 OVC120
     FM051600 36005KT 5SM -SHRA BR VCTS BKN020CB OVC120
     FM060200 VRB03KT P6SM FEW040 BKN130
     FM060700 00000KT 2SM BR BKN130
     FM061000 00000KT 1SM BR BKN005 BKN130=



000
FTUS43 KJKL 051140
TAFSME
TAF
KSME 051140Z 0512/0612 VRB03KT P6SM -SHRA SCT020 OVC120
      TEMPO 0512/0516 3SM BR
     FM051600 36005KT 5SM -SHRA BR VCTS BKN020CB OVC120
     FM060200 VRB03KT P6SM FEW040 BKN130
     FM060700 00000KT 2SM BR BKN130
     FM061000 00000KT 1/2SM FG BKN005 BKN130=



000
FTUS43 KJKL 050828 AAA
TAFLOZ
TAF AMD
KLOZ 050828Z 0508/0606 VRB03KT 1SM SHRA SCT015 BKN030 OVC100
      TEMPO 0508/0512 5SM BR BKN035 OVC100
     FM051200 VRB03KT P6SM VCSH BKN025 OVC120
     FM051600 36005KT 5SM -SHRA VCTS BKN025CB OVC120
     FM052300 VRB03KT P6SM BKN150=



000
FTUS43 KJKL 050828 AAA
TAFLOZ
TAF AMD
KLOZ 050828Z 0508/0606 VRB03KT 1SM SHRA SCT015 BKN030 OVC100
      TEMPO 0508/0512 5SM BR BKN035 OVC100
     FM051200 VRB03KT P6SM VCSH BKN025 OVC120
     FM051600 36005KT 5SM -SHRA VCTS BKN025CB OVC120
     FM052300 VRB03KT P6SM BKN150=



000
FTUS43 KJKL 050540
TAFSME
TAF
KSME 050540Z 0506/0606 VRB03KT 6SM BR VCSH SCT030 OVC200
     FM051300 VRB03KT P6SM VCSH BKN025 OVC120
     FM051600 36005KT 5SM -SHRA VCTS BKN025CB OVC120
     FM052200 VRB03KT P6SM BKN150=



000
FTUS43 KJKL 050540
TAFJKL
TAF
KJKL 050540Z 0506/0606 VRB03KT 6SM BR SCT030 OVC200
     FM051600 VRB03KT 5SM -SHRA VCTS BKN025CB OVC120=



000
FTUS43 KJKL 050540
TAFLOZ
TAF
KLOZ 050540Z 0506/0606 VRB03KT 6SM BR VCSH SCT030 OVC200
     FM051300 VRB03KT P6SM VCSH BKN025 OVC120
     FM051600 36005KT 5SM -SHRA VCTS BKN025CB OVC120
     FM052300 VRB03KT P6SM BKN150=



000
FTUS43 KJKL 050234 AAA
TAFSME
TAF AMD
KSME 050234Z 0503/0524 VRB03KT 5SM BR VCSH SCT035 BKN050
     FM050700 VRB03KT 5SM -RA BR OVC040
     FM050900 VRB03KT 4SM -SHRA BR OVC025
     FM051100 VRB03KT 4SM -SHRA BR OVC013
     FM051700 VRB03KT P6SM -SHRA OVC020=



    US Dept of Commerce
    National Oceanic and Atmospheric Administration
    National Weather Service
    1325 East West Highway
    Silver Spring, MD 20910
    Page Author: NWS Internet Services Team
Disclaimer
Information Quality
Credits
Glossary
Privacy Policy
Freedom of Information Act (FOIA)
About Us
Career Opportunities